sensor_id;sensor_type;location;lat;lon;timestamp;P1;durP1;ratioP1;P2;durP2;ratioP2
33495;SDS011;19836;55.812;37.560;2023-10-31T00:01:15;5.35;;;2.85;;
33495;SDS011;19836;55.812;37.560;2023-10-31T00:03:41;4.18;;;3.00;;
33495;SDS011;19836;55.812;37.560;2023-10-31T00:06:08;3.28;;;2.40;;
33495;SDS011;19836;55.812;37.560;2023-10-31T00:08:34;3.47;;;2.95;;
33495;SDS011;19836;55.812;37.560;2023-10-31T00:10:59;6.97;;;2.97;;
33495;SDS011;19836;55.812;37.560;2023-10-31T00:13:25;4.57;;;2.92;;
33495;SDS011;19836;55.812;37.560;2023-10-31T00:15:51;3.22;;;2.53;;
33495;SDS011;19836;55.812;37.560;2023-10-31T00:18:17;3.05;;;2.42;;
33495;SDS011;19836;55.812;37.560;2023-10-31T00:20:43;3.90;;;2.78;;
33495;SDS011;19836;55.812;37.560;2023-10-31T00:23:09;4.10;;;2.60;;
33495;SDS011;19836;55.812;37.560;2023-10-31T00:25:35;3.50;;;2.65;;
33495;SDS011;19836;55.812;37.560;2023-10-31T00:28:01;3.53;;;2.50;;
33495;SDS011;19836;55.812;37.560;2023-10-31T00:30:27;3.47;;;2.55;;
33495;SDS011;19836;55.812;37.560;2023-10-31T00:32:52;3.25;;;2.22;;
33495;SDS011;19836;55.812;37.560;2023-10-31T00:35:18;3.45;;;2.63;;
33495;SDS011;19836;55.812;37.560;2023-10-31T00:37:44;2.97;;;2.40;;
33495;SDS011;19836;55.812;37.560;2023-10-31T00:40:10;3.83;;;2.60;;
33495;SDS011;19836;55.812;37.560;2023-10-31T00:42:37;3.60;;;2.78;;
33495;SDS011;19836;55.812;37.560;2023-10-31T00:45:03;3.08;;;2.67;;
33495;SDS011;19836;55.812;37.560;2023-10-31T00:47:31;3.58;;;2.90;;
33495;SDS011;19836;55.812;37.560;2023-10-31T00:49:57;2.60;;;2.40;;
33495;SDS011;19836;55.812;37.560;2023-10-31T00:52:23;3.25;;;2.33;;
33495;SDS011;19836;55.812;37.560;2023-10-31T00:54:49;4.13;;;2.92;;
33495;SDS011;19836;55.812;37.560;2023-10-31T00:57:15;5.72;;;2.50;;
33495;SDS011;19836;55.812;37.560;2023-10-31T00:59:41;3.38;;;2.80;;
33495;SDS011;19836;55.812;37.560;2023-10-31T01:02:07;2.42;;;2.20;;
33495;SDS011;19836;55.812;37.560;2023-10-31T01:04:33;3.30;;;2.70;;
33495;SDS011;19836;55.812;37.560;2023-10-31T01:06:58;2.92;;;2.63;;
33495;SDS011;19836;55.812;37.560;2023-10-31T01:09:24;4.45;;;2.80;;
33495;SDS011;19836;55.812;37.560;2023-10-31T01:11:50;3.42;;;3.13;;
33495;SDS011;19836;55.812;37.560;2023-10-31T01:14:16;3.03;;;2.47;;
33495;SDS011;19836;55.812;37.560;2023-10-31T01:16:42;3.42;;;2.65;;
33495;SDS011;19836;55.812;37.560;2023-10-31T01:19:08;6.20;;;2.60;;
33495;SDS011;19836;55.812;37.560;2023-10-31T01:21:34;4.07;;;2.53;;
33495;SDS011;19836;55.812;37.560;2023-10-31T01:24:00;4.07;;;2.42;;
33495;SDS011;19836;55.812;37.560;2023-10-31T01:26:26;3.28;;;2.47;;
33495;SDS011;19836;55.812;37.560;2023-10-31T01:28:51;2.90;;;2.58;;
33495;SDS011;19836;55.812;37.560;2023-10-31T01:31:17;3.30;;;2.63;;
33495;SDS011;19836;55.812;37.560;2023-10-31T01:33:45;3.15;;;2.30;;
33495;SDS011;19836;55.812;37.560;2023-10-31T01:36:11;3.00;;;2.30;;
33495;SDS011;19836;55.812;37.560;2023-10-31T01:38:38;3.50;;;2.50;;
33495;SDS011;19836;55.812;37.560;2023-10-31T01:41:04;3.28;;;2.50;;
33495;SDS011;19836;55.812;37.560;2023-10-31T01:45:57;3.90;;;2.60;;
33495;SDS011;19836;55.812;37.560;2023-10-31T01:48:23;2.60;;;2.33;;
33495;SDS011;19836;55.812;37.560;2023-10-31T01:50:51;3.47;;;2.55;;
33495;SDS011;19836;55.812;37.560;2023-10-31T01:53:17;3.95;;;2.60;;
33495;SDS011;19836;55.812;37.560;2023-10-31T01:55:47;3.80;;;2.65;;
33495;SDS011;19836;55.812;37.560;2023-10-31T01:58:13;3.15;;;2.22;;
33495;SDS011;19836;55.812;37.560;2023-10-31T02:00:40;5.60;;;2.90;;
33495;SDS011;19836;55.812;37.560;2023-10-31T02:03:07;5.95;;;3.80;;
33495;SDS011;19836;55.812;37.560;2023-10-31T02:05:33;3.25;;;2.33;;
33495;SDS011;19836;55.812;37.560;2023-10-31T02:08:00;2.75;;;2.50;;
33495;SDS011;19836;55.812;37.560;2023-10-31T02:10:27;3.97;;;2.30;;
33495;SDS011;19836;55.812;37.560;2023-10-31T02:12:52;3.90;;;2.75;;
33495;SDS011;19836;55.812;37.560;2023-10-31T02:15:18;2.85;;;2.10;;
33495;SDS011;19836;55.812;37.560;2023-10-31T02:17:44;2.80;;;2.30;;
33495;SDS011;19836;55.812;37.560;2023-10-31T02:20:10;3.92;;;2.80;;
33495;SDS011;19836;55.812;37.560;2023-10-31T02:22:36;3.05;;;2.50;;
33495;SDS011;19836;55.812;37.560;2023-10-31T02:25:02;3.03;;;2.17;;
33495;SDS011;19836;55.812;37.560;2023-10-31T02:27:29;2.80;;;2.22;;
33495;SDS011;19836;55.812;37.560;2023-10-31T02:29:55;4.00;;;2.63;;
33495;SDS011;19836;55.812;37.560;2023-10-31T02:32:21;3.08;;;2.40;;
33495;SDS011;19836;55.812;37.560;2023-10-31T02:34:47;3.70;;;2.33;;
33495;SDS011;19836;55.812;37.560;2023-10-31T02:37:13;2.33;;;1.80;;
33495;SDS011;19836;55.812;37.560;2023-10-31T02:39:39;3.15;;;2.20;;
33495;SDS011;19836;55.812;37.560;2023-10-31T02:42:05;19.23;;;8.48;;
33495;SDS011;19836;55.812;37.560;2023-10-31T02:44:32;4.85;;;2.60;;
33495;SDS011;19836;55.812;37.560;2023-10-31T02:46:57;3.05;;;2.00;;
33495;SDS011;19836;55.812;37.560;2023-10-31T02:49:23;2.50;;;2.13;;
33495;SDS011;19836;55.812;37.560;2023-10-31T02:51:49;3.05;;;1.80;;
33495;SDS011;19836;55.812;37.560;2023-10-31T02:54:15;2.70;;;2.25;;
33495;SDS011;19836;55.812;37.560;2023-10-31T02:56:42;3.75;;;2.58;;
33495;SDS011;19836;55.812;37.560;2023-10-31T02:59:07;3.20;;;2.08;;
33495;SDS011;19836;55.812;37.560;2023-10-31T03:01:34;2.35;;;2.00;;
33495;SDS011;19836;55.812;37.560;2023-10-31T03:04:01;2.83;;;2.03;;
33495;SDS011;19836;55.812;37.560;2023-10-31T03:06:27;2.80;;;2.20;;
33495;SDS011;19836;55.812;37.560;2023-10-31T03:08:52;3.47;;;2.45;;
33495;SDS011;19836;55.812;37.560;2023-10-31T03:11:22;2.80;;;2.38;;
33495;SDS011;19836;55.812;37.560;2023-10-31T03:13:52;4.63;;;2.35;;
33495;SDS011;19836;55.812;37.560;2023-10-31T03:16:19;3.10;;;2.22;;
33495;SDS011;19836;55.812;37.560;2023-10-31T03:18:46;3.20;;;2.90;;
33495;SDS011;19836;55.812;37.560;2023-10-31T03:21:12;3.30;;;2.20;;
33495;SDS011;19836;55.812;37.560;2023-10-31T03:23:38;3.55;;;2.58;;
33495;SDS011;19836;55.812;37.560;2023-10-31T03:26:05;4.43;;;2.60;;
33495;SDS011;19836;55.812;37.560;2023-10-31T03:28:31;3.05;;;2.35;;
33495;SDS011;19836;55.812;37.560;2023-10-31T03:30:57;2.80;;;2.50;;
33495;SDS011;19836;55.812;37.560;2023-10-31T03:33:24;2.30;;;2.05;;
33495;SDS011;19836;55.812;37.560;2023-10-31T03:35:50;4.88;;;3.55;;
33495;SDS011;19836;55.812;37.560;2023-10-31T03:38:16;5.03;;;4.07;;
33495;SDS011;19836;55.812;37.560;2023-10-31T03:40:42;7.53;;;4.85;;
33495;SDS011;19836;55.812;37.560;2023-10-31T03:43:11;6.80;;;4.28;;
33495;SDS011;19836;55.812;37.560;2023-10-31T03:45:37;5.85;;;4.55;;
33495;SDS011;19836;55.812;37.560;2023-10-31T03:48:03;7.50;;;5.32;;
33495;SDS011;19836;55.812;37.560;2023-10-31T03:50:30;6.60;;;4.60;;
33495;SDS011;19836;55.812;37.560;2023-10-31T03:52:55;6.72;;;4.90;;
33495;SDS011;19836;55.812;37.560;2023-10-31T03:55:21;6.97;;;5.13;;
33495;SDS011;19836;55.812;37.560;2023-10-31T03:57:47;7.20;;;5.18;;
33495;SDS011;19836;55.812;37.560;2023-10-31T04:00:13;9.40;;;5.65;;
33495;SDS011;19836;55.812;37.560;2023-10-31T04:02:40;9.98;;;7.22;;
33495;SDS011;19836;55.812;37.560;2023-10-31T04:05:07;8.30;;;7.03;;
33495;SDS011;19836;55.812;37.560;2023-10-31T04:07:34;8.40;;;6.07;;
33495;SDS011;19836;55.812;37.560;2023-10-31T04:10:00;8.15;;;6.13;;
33495;SDS011;19836;55.812;37.560;2023-10-31T04:12:30;9.77;;;6.13;;
33495;SDS011;19836;55.812;37.560;2023-10-31T04:14:56;9.10;;;6.28;;
33495;SDS011;19836;55.812;37.560;2023-10-31T04:17:21;24.38;;;11.02;;
33495;SDS011;19836;55.812;37.560;2023-10-31T04:19:48;11.23;;;7.28;;
33495;SDS011;19836;55.812;37.560;2023-10-31T04:22:13;7.47;;;4.90;;
33495;SDS011;19836;55.812;37.560;2023-10-31T04:24:40;9.60;;;6.75;;
33495;SDS011;19836;55.812;37.560;2023-10-31T04:27:06;8.85;;;5.53;;
33495;SDS011;19836;55.812;37.560;2023-10-31T04:29:32;7.50;;;5.38;;
33495;SDS011;19836;55.812;37.560;2023-10-31T04:31:58;8.05;;;5.80;;
33495;SDS011;19836;55.812;37.560;2023-10-31T04:34:24;8.48;;;4.97;;
33495;SDS011;19836;55.812;37.560;2023-10-31T04:36:50;8.77;;;7.38;;
33495;SDS011;19836;55.812;37.560;2023-10-31T04:39:16;5.25;;;3.45;;
33495;SDS011;19836;55.812;37.560;2023-10-31T04:41:42;7.45;;;4.80;;
33495;SDS011;19836;55.812;37.560;2023-10-31T04:44:08;7.78;;;5.00;;
33495;SDS011;19836;55.812;37.560;2023-10-31T04:46:37;4.40;;;3.58;;
33495;SDS011;19836;55.812;37.560;2023-10-31T04:49:05;4.72;;;3.22;;
33495;SDS011;19836;55.812;37.560;2023-10-31T04:51:35;6.13;;;3.60;;
33495;SDS011;19836;55.812;37.560;2023-10-31T04:54:01;8.60;;;3.92;;
33495;SDS011;19836;55.812;37.560;2023-10-31T04:56:28;6.20;;;4.20;;
33495;SDS011;19836;55.812;37.560;2023-10-31T04:58:54;5.10;;;4.10;;
33495;SDS011;19836;55.812;37.560;2023-10-31T05:01:19;8.55;;;4.88;;
33495;SDS011;19836;55.812;37.560;2023-10-31T05:03:46;7.57;;;4.25;;
33495;SDS011;19836;55.812;37.560;2023-10-31T05:06:12;6.60;;;4.80;;
33495;SDS011;19836;55.812;37.560;2023-10-31T05:08:37;8.07;;;7.13;;
33495;SDS011;19836;55.812;37.560;2023-10-31T05:11:03;6.00;;;5.40;;
33495;SDS011;19836;55.812;37.560;2023-10-31T05:13:29;7.10;;;4.65;;
33495;SDS011;19836;55.812;37.560;2023-10-31T05:15:55;7.88;;;7.07;;
33495;SDS011;19836;55.812;37.560;2023-10-31T05:18:21;6.35;;;5.38;;
33495;SDS011;19836;55.812;37.560;2023-10-31T05:20:47;6.47;;;5.07;;
33495;SDS011;19836;55.812;37.560;2023-10-31T05:23:13;6.07;;;4.85;;
33495;SDS011;19836;55.812;37.560;2023-10-31T05:25:39;6.05;;;5.35;;
33495;SDS011;19836;55.812;37.560;2023-10-31T05:28:05;5.13;;;4.38;;
33495;SDS011;19836;55.812;37.560;2023-10-31T05:30:31;7.68;;;4.72;;
33495;SDS011;19836;55.812;37.560;2023-10-31T05:32:57;6.47;;;3.83;;
33495;SDS011;19836;55.812;37.560;2023-10-31T05:35:23;4.95;;;4.32;;
33495;SDS011;19836;55.812;37.560;2023-10-31T05:37:58;6.50;;;4.32;;
33495;SDS011;19836;55.812;37.560;2023-10-31T05:40:24;4.97;;;4.10;;
33495;SDS011;19836;55.812;37.560;2023-10-31T05:53:12;8.55;;;5.30;;
33495;SDS011;19836;55.812;37.560;2023-10-31T05:55:39;4.47;;;3.78;;
33495;SDS011;19836;55.812;37.560;2023-10-31T05:58:05;4.22;;;3.65;;
33495;SDS011;19836;55.812;37.560;2023-10-31T06:00:31;4.90;;;3.58;;
33495;SDS011;19836;55.812;37.560;2023-10-31T06:02:57;4.55;;;3.25;;
33495;SDS011;19836;55.812;37.560;2023-10-31T06:05:23;3.45;;;3.00;;
33495;SDS011;19836;55.812;37.560;2023-10-31T06:07:48;4.93;;;3.63;;
33495;SDS011;19836;55.812;37.560;2023-10-31T06:10:14;3.60;;;3.30;;
33495;SDS011;19836;55.812;37.560;2023-10-31T06:12:40;4.50;;;3.60;;
33495;SDS011;19836;55.812;37.560;2023-10-31T06:15:06;3.97;;;3.58;;
33495;SDS011;19836;55.812;37.560;2023-10-31T06:17:33;3.88;;;3.58;;
33495;SDS011;19836;55.812;37.560;2023-10-31T06:19:59;3.72;;;3.42;;
33495;SDS011;19836;55.812;37.560;2023-10-31T06:22:25;3.92;;;3.30;;
33495;SDS011;19836;55.812;37.560;2023-10-31T06:24:51;4.18;;;3.58;;
33495;SDS011;19836;55.812;37.560;2023-10-31T06:27:17;3.95;;;3.47;;
33495;SDS011;19836;55.812;37.560;2023-10-31T06:29:43;5.85;;;3.40;;
33495;SDS011;19836;55.812;37.560;2023-10-31T06:32:09;5.05;;;3.55;;
33495;SDS011;19836;55.812;37.560;2023-10-31T06:34:35;6.00;;;4.13;;
33495;SDS011;19836;55.812;37.560;2023-10-31T06:37:01;4.53;;;3.60;;
33495;SDS011;19836;55.812;37.560;2023-10-31T06:39:26;4.60;;;4.00;;
33495;SDS011;19836;55.812;37.560;2023-10-31T06:41:55;5.63;;;4.13;;
33495;SDS011;19836;55.812;37.560;2023-10-31T06:44:21;5.50;;;3.88;;
33495;SDS011;19836;55.812;37.560;2023-10-31T06:46:47;5.00;;;4.13;;
33495;SDS011;19836;55.812;37.560;2023-10-31T06:49:13;7.22;;;4.05;;
33495;SDS011;19836;55.812;37.560;2023-10-31T06:51:39;6.00;;;4.85;;
33495;SDS011;19836;55.812;37.560;2023-10-31T06:54:05;5.18;;;4.00;;
33495;SDS011;19836;55.812;37.560;2023-10-31T06:56:31;7.53;;;3.60;;
33495;SDS011;19836;55.812;37.560;2023-10-31T06:58:57;4.65;;;4.25;;
33495;SDS011;19836;55.812;37.560;2023-10-31T07:01:24;6.38;;;4.45;;
33495;SDS011;19836;55.812;37.560;2023-10-31T07:03:50;4.60;;;4.20;;
33495;SDS011;19836;55.812;37.560;2023-10-31T07:06:16;8.15;;;4.70;;
33495;SDS011;19836;55.812;37.560;2023-10-31T07:08:42;5.95;;;5.30;;
33495;SDS011;19836;55.812;37.560;2023-10-31T07:11:08;5.20;;;4.35;;
33495;SDS011;19836;55.812;37.560;2023-10-31T07:13:34;8.27;;;4.93;;
33495;SDS011;19836;55.812;37.560;2023-10-31T07:16:00;7.38;;;5.10;;
33495;SDS011;19836;55.812;37.560;2023-10-31T07:18:26;6.65;;;5.10;;
33495;SDS011;19836;55.812;37.560;2023-10-31T07:20:52;8.00;;;5.15;;
33495;SDS011;19836;55.812;37.560;2023-10-31T07:23:18;5.90;;;5.30;;
33495;SDS011;19836;55.812;37.560;2023-10-31T07:25:44;7.18;;;4.90;;
33495;SDS011;19836;55.812;37.560;2023-10-31T07:28:10;6.15;;;4.85;;
33495;SDS011;19836;55.812;37.560;2023-10-31T07:30:37;9.02;;;5.68;;
33495;SDS011;19836;55.812;37.560;2023-10-31T07:33:02;7.32;;;5.53;;
33495;SDS011;19836;55.812;37.560;2023-10-31T07:35:28;7.43;;;4.53;;
33495;SDS011;19836;55.812;37.560;2023-10-31T07:37:54;6.88;;;5.50;;
33495;SDS011;19836;55.812;37.560;2023-10-31T07:40:20;5.22;;;4.72;;
33495;SDS011;19836;55.812;37.560;2023-10-31T07:42:46;5.38;;;4.55;;
33495;SDS011;19836;55.812;37.560;2023-10-31T07:45:12;6.72;;;4.80;;
33495;SDS011;19836;55.812;37.560;2023-10-31T07:47:38;6.13;;;4.72;;
33495;SDS011;19836;55.812;37.560;2023-10-31T07:50:04;4.80;;;4.22;;
33495;SDS011;19836;55.812;37.560;2023-10-31T07:52:31;4.82;;;4.32;;
33495;SDS011;19836;55.812;37.560;2023-10-31T07:54:57;5.97;;;4.53;;
33495;SDS011;19836;55.812;37.560;2023-10-31T07:57:23;6.82;;;4.25;;
33495;SDS011;19836;55.812;37.560;2023-10-31T07:59:49;4.65;;;4.20;;
33495;SDS011;19836;55.812;37.560;2023-10-31T08:02:15;4.78;;;4.15;;
33495;SDS011;19836;55.812;37.560;2023-10-31T08:04:41;4.82;;;4.13;;
33495;SDS011;19836;55.812;37.560;2023-10-31T08:07:07;4.68;;;4.25;;
33495;SDS011;19836;55.812;37.560;2023-10-31T08:09:33;5.00;;;3.90;;
33495;SDS011;19836;55.812;37.560;2023-10-31T08:11:59;5.03;;;4.00;;
33495;SDS011;19836;55.812;37.560;2023-10-31T08:14:24;4.95;;;4.00;;
33495;SDS011;19836;55.812;37.560;2023-10-31T08:16:50;4.20;;;3.72;;
33495;SDS011;19836;55.812;37.560;2023-10-31T08:19:16;4.80;;;3.65;;
33495;SDS011;19836;55.812;37.560;2023-10-31T08:21:42;6.03;;;3.85;;
33495;SDS011;19836;55.812;37.560;2023-10-31T08:24:08;6.38;;;3.70;;
33495;SDS011;19836;55.812;37.560;2023-10-31T08:26:34;3.83;;;3.40;;
33495;SDS011;19836;55.812;37.560;2023-10-31T08:29:00;5.85;;;3.75;;
33495;SDS011;19836;55.812;37.560;2023-10-31T08:31:26;4.20;;;3.70;;
33495;SDS011;19836;55.812;37.560;2023-10-31T08:33:52;4.28;;;3.40;;
33495;SDS011;19836;55.812;37.560;2023-10-31T08:36:18;4.03;;;3.63;;
33495;SDS011;19836;55.812;37.560;2023-10-31T08:38:44;3.63;;;3.33;;
33495;SDS011;19836;55.812;37.560;2023-10-31T08:41:10;5.57;;;3.88;;
33495;SDS011;19836;55.812;37.560;2023-10-31T08:43:36;6.70;;;3.63;;
33495;SDS011;19836;55.812;37.560;2023-10-31T08:46:02;3.60;;;3.25;;
33495;SDS011;19836;55.812;37.560;2023-10-31T08:48:27;4.82;;;3.63;;
33495;SDS011;19836;55.812;37.560;2023-10-31T08:50:53;4.75;;;4.10;;
33495;SDS011;19836;55.812;37.560;2023-10-31T08:53:19;5.80;;;4.35;;
33495;SDS011;19836;55.812;37.560;2023-10-31T08:55:45;4.07;;;3.45;;
33495;SDS011;19836;55.812;37.560;2023-10-31T08:58:12;4.78;;;3.60;;
33495;SDS011;19836;55.812;37.560;2023-10-31T09:00:40;3.40;;;3.10;;
33495;SDS011;19836;55.812;37.560;2023-10-31T09:03:07;4.13;;;3.72;;
33495;SDS011;19836;55.812;37.560;2023-10-31T09:05:33;4.68;;;3.60;;
33495;SDS011;19836;55.812;37.560;2023-10-31T09:07:59;4.75;;;3.67;;
33495;SDS011;19836;55.812;37.560;2023-10-31T09:10:25;4.03;;;3.63;;
33495;SDS011;19836;55.812;37.560;2023-10-31T09:12:51;6.30;;;4.88;;
33495;SDS011;19836;55.812;37.560;2023-10-31T09:15:17;4.95;;;4.07;;
33495;SDS011;19836;55.812;37.560;2023-10-31T09:17:44;5.38;;;4.25;;
33495;SDS011;19836;55.812;37.560;2023-10-31T09:20:10;7.90;;;4.50;;
33495;SDS011;19836;55.812;37.560;2023-10-31T09:22:37;4.82;;;4.05;;
33495;SDS011;19836;55.812;37.560;2023-10-31T09:25:03;4.85;;;3.88;;
33495;SDS011;19836;55.812;37.560;2023-10-31T09:27:30;9.95;;;6.30;;
33495;SDS011;19836;55.812;37.560;2023-10-31T09:29:56;4.10;;;3.70;;
33495;SDS011;19836;55.812;37.560;2023-10-31T09:32:22;4.95;;;3.80;;
33495;SDS011;19836;55.812;37.560;2023-10-31T09:34:48;3.60;;;3.30;;
33495;SDS011;19836;55.812;37.560;2023-10-31T09:37:14;5.07;;;3.85;;
33495;SDS011;19836;55.812;37.560;2023-10-31T09:39:41;5.50;;;4.40;;
33495;SDS011;19836;55.812;37.560;2023-10-31T09:42:07;5.35;;;4.85;;
33495;SDS011;19836;55.812;37.560;2023-10-31T09:44:33;7.32;;;6.40;;
33495;SDS011;19836;55.812;37.560;2023-10-31T09:47:00;8.68;;;7.43;;
33495;SDS011;19836;55.812;37.560;2023-10-31T09:49:27;7.78;;;4.72;;
33495;SDS011;19836;55.812;37.560;2023-10-31T09:51:54;4.75;;;4.20;;
33495;SDS011;19836;55.812;37.560;2023-10-31T09:54:20;5.53;;;4.50;;
33495;SDS011;19836;55.812;37.560;2023-10-31T09:56:48;5.38;;;4.03;;
33495;SDS011;19836;55.812;37.560;2023-10-31T09:59:14;4.95;;;4.45;;
33495;SDS011;19836;55.812;37.560;2023-10-31T10:01:43;5.70;;;4.40;;
33495;SDS011;19836;55.812;37.560;2023-10-31T10:04:10;4.93;;;4.10;;
33495;SDS011;19836;55.812;37.560;2023-10-31T10:06:39;5.47;;;4.55;;
33495;SDS011;19836;55.812;37.560;2023-10-31T10:09:06;6.27;;;4.50;;
33495;SDS011;19836;55.812;37.560;2023-10-31T10:11:33;4.88;;;4.35;;
33495;SDS011;19836;55.812;37.560;2023-10-31T10:13:59;4.40;;;4.00;;
33495;SDS011;19836;55.812;37.560;2023-10-31T10:16:31;4.55;;;3.65;;
33495;SDS011;19836;55.812;37.560;2023-10-31T10:19:13;4.30;;;3.70;;
33495;SDS011;19836;55.812;37.560;2023-10-31T10:21:48;4.43;;;3.58;;
33495;SDS011;19836;55.812;37.560;2023-10-31T10:24:19;4.13;;;3.10;;
33495;SDS011;19836;55.812;37.560;2023-10-31T10:26:45;4.30;;;3.90;;
33495;SDS011;19836;55.812;37.560;2023-10-31T10:29:11;3.65;;;3.33;;
33495;SDS011;19836;55.812;37.560;2023-10-31T10:31:37;4.30;;;3.90;;
33495;SDS011;19836;55.812;37.560;2023-10-31T10:34:03;4.25;;;3.85;;
33495;SDS011;19836;55.812;37.560;2023-10-31T10:36:31;4.28;;;3.88;;
33495;SDS011;19836;55.812;37.560;2023-10-31T10:38:58;4.75;;;4.25;;
33495;SDS011;19836;55.812;37.560;2023-10-31T10:41:25;4.13;;;3.72;;
33495;SDS011;19836;55.812;37.560;2023-10-31T10:44:03;6.43;;;4.07;;
33495;SDS011;19836;55.812;37.560;2023-10-31T10:46:33;5.00;;;4.07;;
33495;SDS011;19836;55.812;37.560;2023-10-31T10:49:04;5.25;;;4.75;;
33495;SDS011;19836;55.812;37.560;2023-10-31T10:56:59;4.32;;;3.58;;
33495;SDS011;19836;55.812;37.560;2023-10-31T10:59:43;5.35;;;3.90;;
33495;SDS011;19836;55.812;37.560;2023-10-31T11:02:17;4.25;;;3.85;;
33495;SDS011;19836;55.812;37.560;2023-10-31T11:04:44;4.45;;;3.50;;
33495;SDS011;19836;55.812;37.560;2023-10-31T11:07:10;4.72;;;4.32;;
33495;SDS011;19836;55.812;37.560;2023-10-31T11:09:37;3.78;;;3.20;;
33495;SDS011;19836;55.812;37.560;2023-10-31T11:12:05;4.10;;;3.28;;
33495;SDS011;19836;55.812;37.560;2023-10-31T11:14:32;3.88;;;3.20;;
33495;SDS011;19836;55.812;37.560;2023-10-31T11:17:05;3.35;;;3.05;;
33495;SDS011;19836;55.812;37.560;2023-10-31T11:19:37;3.60;;;3.25;;
33495;SDS011;19836;55.812;37.560;2023-10-31T11:22:03;5.00;;;3.58;;
33495;SDS011;19836;55.812;37.560;2023-10-31T11:24:31;4.80;;;3.67;;
33495;SDS011;19836;55.812;37.560;2023-10-31T11:27:02;4.25;;;3.08;;
33495;SDS011;19836;55.812;37.560;2023-10-31T11:29:31;3.55;;;3.17;;
33495;SDS011;19836;55.812;37.560;2023-10-31T11:31:57;3.72;;;3.42;;
33495;SDS011;19836;55.812;37.560;2023-10-31T11:34:34;4.68;;;3.60;;
33495;SDS011;19836;55.812;37.560;2023-10-31T11:42:48;5.03;;;4.53;;
33495;SDS011;19836;55.812;37.560;2023-10-31T11:45:25;6.45;;;5.80;;
33495;SDS011;19836;55.812;37.560;2023-10-31T11:47:52;4.13;;;3.60;;
33495;SDS011;19836;55.812;37.560;2023-10-31T11:50:19;3.78;;;3.47;;
33495;SDS011;19836;55.812;37.560;2023-10-31T11:52:44;3.50;;;3.20;;
33495;SDS011;19836;55.812;37.560;2023-10-31T11:55:24;4.03;;;3.30;;
33495;SDS011;19836;55.812;37.560;2023-10-31T11:57:50;4.40;;;3.75;;
33495;SDS011;19836;55.812;37.560;2023-10-31T12:00:23;4.13;;;3.55;;
33495;SDS011;19836;55.812;37.560;2023-10-31T12:02:59;3.53;;;3.20;;
33495;SDS011;19836;55.812;37.560;2023-10-31T12:05:26;3.92;;;3.45;;
33495;SDS011;19836;55.812;37.560;2023-10-31T12:07:53;5.05;;;3.60;;
33495;SDS011;19836;55.812;37.560;2023-10-31T12:10:26;3.75;;;3.25;;
33495;SDS011;19836;55.812;37.560;2023-10-31T12:12:55;10.10;;;8.43;;
33495;SDS011;19836;55.812;37.560;2023-10-31T12:15:22;4.15;;;3.47;;
33495;SDS011;19836;55.812;37.560;2023-10-31T12:17:48;5.20;;;3.83;;
33495;SDS011;19836;55.812;37.560;2023-10-31T12:20:14;5.32;;;4.82;;
33495;SDS011;19836;55.812;37.560;2023-10-31T12:22:43;7.65;;;6.32;;
33495;SDS011;19836;55.812;37.560;2023-10-31T12:25:10;4.47;;;3.58;;
33495;SDS011;19836;55.812;37.560;2023-10-31T12:27:49;3.85;;;3.30;;
33495;SDS011;19836;55.812;37.560;2023-10-31T12:30:17;3.72;;;3.42;;
33495;SDS011;19836;55.812;37.560;2023-10-31T12:32:44;4.07;;;3.70;;
33495;SDS011;19836;55.812;37.560;2023-10-31T12:35:14;4.38;;;3.50;;
33495;SDS011;19836;55.812;37.560;2023-10-31T12:37:46;3.90;;;3.58;;
33495;SDS011;19836;55.812;37.560;2023-10-31T12:40:17;4.60;;;3.47;;
33495;SDS011;19836;55.812;37.560;2023-10-31T12:42:45;4.50;;;3.78;;
33495;SDS011;19836;55.812;37.560;2023-10-31T12:45:12;4.80;;;3.83;;
33495;SDS011;19836;55.812;37.560;2023-10-31T12:47:38;3.38;;;3.05;;
33495;SDS011;19836;55.812;37.560;2023-10-31T12:50:07;3.60;;;3.20;;
33495;SDS011;19836;55.812;37.560;2023-10-31T12:52:49;4.57;;;3.40;;
33495;SDS011;19836;55.812;37.560;2023-10-31T12:55:17;5.60;;;3.42;;
33495;SDS011;19836;55.812;37.560;2023-10-31T12:57:44;5.18;;;3.75;;
33495;SDS011;19836;55.812;37.560;2023-10-31T13:00:12;4.63;;;4.20;;
33495;SDS011;19836;55.812;37.560;2023-10-31T13:02:39;4.43;;;3.90;;
33495;SDS011;19836;55.812;37.560;2023-10-31T13:05:13;5.10;;;4.22;;
33495;SDS011;19836;55.812;37.560;2023-10-31T13:07:51;5.03;;;3.88;;
33495;SDS011;19836;55.812;37.560;2023-10-31T13:10:22;4.30;;;3.90;;
33495;SDS011;19836;55.812;37.560;2023-10-31T13:12:49;11.20;;;5.93;;
33495;SDS011;19836;55.812;37.560;2023-10-31T13:15:16;6.60;;;5.90;;
33495;SDS011;19836;55.812;37.560;2023-10-31T13:17:44;9.00;;;7.07;;
33495;SDS011;19836;55.812;37.560;2023-10-31T13:20:10;8.63;;;6.95;;
33495;SDS011;19836;55.812;37.560;2023-10-31T13:22:38;8.75;;;7.70;;
33495;SDS011;19836;55.812;37.560;2023-10-31T13:25:05;8.60;;;7.72;;
33495;SDS011;19836;55.812;37.560;2023-10-31T13:27:37;11.27;;;7.88;;
33495;SDS011;19836;55.812;37.560;2023-10-31T13:30:03;10.77;;;8.48;;
33495;SDS011;19836;55.812;37.560;2023-10-31T13:32:31;12.95;;;9.32;;
33495;SDS011;19836;55.812;37.560;2023-10-31T13:34:57;11.38;;;9.68;;
33495;SDS011;19836;55.812;37.560;2023-10-31T13:37:23;14.40;;;10.75;;
33495;SDS011;19836;55.812;37.560;2023-10-31T13:39:49;11.38;;;10.18;;
33495;SDS011;19836;55.812;37.560;2023-10-31T13:42:16;12.48;;;10.13;;
33495;SDS011;19836;55.812;37.560;2023-10-31T13:44:42;12.30;;;10.80;;
33495;SDS011;19836;55.812;37.560;2023-10-31T13:47:08;15.10;;;12.00;;
33495;SDS011;19836;55.812;37.560;2023-10-31T13:49:35;14.45;;;11.88;;
33495;SDS011;19836;55.812;37.560;2023-10-31T13:52:01;12.70;;;10.95;;
33495;SDS011;19836;55.812;37.560;2023-10-31T13:54:27;15.35;;;11.45;;
33495;SDS011;19836;55.812;37.560;2023-10-31T13:56:53;13.60;;;10.73;;
33495;SDS011;19836;55.812;37.560;2023-10-31T13:59:19;14.85;;;12.02;;
33495;SDS011;19836;55.812;37.560;2023-10-31T14:01:45;14.80;;;13.23;;
33495;SDS011;19836;55.812;37.560;2023-10-31T14:04:12;15.68;;;12.70;;
33495;SDS011;19836;55.812;37.560;2023-10-31T14:06:41;14.20;;;12.35;;
33495;SDS011;19836;55.812;37.560;2023-10-31T14:09:08;15.38;;;11.80;;
33495;SDS011;19836;55.812;37.560;2023-10-31T14:11:35;16.20;;;11.65;;
33495;SDS011;19836;55.812;37.560;2023-10-31T14:14:02;14.65;;;11.35;;
33495;SDS011;19836;55.812;37.560;2023-10-31T14:16:35;12.15;;;10.95;;
33495;SDS011;19836;55.812;37.560;2023-10-31T14:19:07;15.20;;;11.43;;
33495;SDS011;19836;55.812;37.560;2023-10-31T14:21:33;17.55;;;12.27;;
33495;SDS011;19836;55.812;37.560;2023-10-31T14:24:00;13.10;;;11.75;;
33495;SDS011;19836;55.812;37.560;2023-10-31T14:26:29;17.05;;;11.13;;
33495;SDS011;19836;55.812;37.560;2023-10-31T14:28:56;12.40;;;10.80;;
33495;SDS011;19836;55.812;37.560;2023-10-31T14:31:22;14.07;;;11.93;;
33495;SDS011;19836;55.812;37.560;2023-10-31T14:33:48;13.45;;;11.57;;
33495;SDS011;19836;55.812;37.560;2023-10-31T14:36:14;13.75;;;10.65;;
33495;SDS011;19836;55.812;37.560;2023-10-31T14:38:40;14.75;;;10.57;;
33495;SDS011;19836;55.812;37.560;2023-10-31T14:41:07;13.68;;;11.23;;
33495;SDS011;19836;55.812;37.560;2023-10-31T14:43:33;12.63;;;11.32;;
33495;SDS011;19836;55.812;37.560;2023-10-31T14:46:00;12.98;;;11.35;;
33495;SDS011;19836;55.812;37.560;2023-10-31T14:48:26;13.60;;;11.57;;
33495;SDS011;19836;55.812;37.560;2023-10-31T14:50:52;14.38;;;11.88;;
33495;SDS011;19836;55.812;37.560;2023-10-31T14:53:18;13.98;;;11.48;;